Time;durP1;ratioP1;P1;durP2;ratioP2;P2;SDS_P1;SDS_P2;PMS_P1;PMS_P2;Temp;Humidity;BMP_temperature;BMP_pressure;BME280_temperature;BME280_humidity;BME280_pressure;Samples;Min_cycle;Max_cycle;Signal;HPM_P1;HPM_P2
2024/04/17 00:02:34;;;;;;;2;1.3;;;;;;;3.66;73.78;97298.333333333;;;;
2024/04/17 00:13:34;;;;;;;2;1.3;;;;;;;3.41;74.47;97271.666666667;;;;
2024/04/17 00:23:34;;;;;;;4;1.7;;;;;;;3.21;74.65;97263.333333333;;;;
2024/04/17 00:34:34;;;;;;;4;1.7;;;;;;;2.92;76.68;97255;;;;
2024/04/17 00:45:34;;;;;;;3.1;1.4;;;;;;;2.75;77.78;97240;;;;
2024/04/17 00:55:35;;;;;;;3.1;1.4;;;;;;;2.58;79.86;97236.666666667;;;;
2024/04/17 01:05:34;;;;;;;3.1;1.4;;;;;;;2.58;79.29;97228.333333333;;;;
2024/04/17 01:16:34;;;;;;;3.8;1.2;;;;;;;2.6;78.64;97230;;;;
2024/04/17 01:27:34;;;;;;;3.8;1.2;;;;;;;2.55;78.27;97220;;;;
2024/04/17 01:37:34;;;;;;;3.8;1.2;;;;;;;2.39;79.28;97211.666666667;;;;
2024/04/17 01:48:34;;;;;;;3.8;1.9;;;;;;;2.15;80.28;97198.333333333;;;;
2024/04/17 01:58:34;;;;;;;3.8;1.9;;;;;;;2.16;81.18;97190;;;;
2024/04/17 02:08:34;;;;;;;3.8;1.9;;;;;;;2.21;81.15;97195;;;;
2024/04/17 02:19:34;;;;;;;3;1.2;;;;;;;2.51;82.26;97190;;;;
2024/04/17 02:29:34;;;;;;;3;1.2;;;;;;;2.91;82.16;97200;;;;
2024/04/17 02:40:34;;;;;;;3;1.2;;;;;;;3.34;82.21;97200;;;;
2024/04/17 02:50:34;;;;;;;2.5;1.3;;;;;;;3.59;81.04;97188.333333333;;;;
2024/04/17 03:01:34;;;;;;;2.5;1.3;;;;;;;4.01;80.94;97180;;;;
2024/04/17 03:12:34;;;;;;;2.5;1.3;;;;;;;4.05;82.59;97180;;;;
2024/04/17 03:22:34;;;;;;;3.2;1.4;;;;;;;4.29;82.04;97180;;;;
2024/04/17 03:32:34;;;;;;;3.2;1.4;;;;;;;4.56;81.21;97181.666666667;;;;
2024/04/17 03:43:34;;;;;;;4.3;2;;;;;;;4.73;81.71;97193.333333333;;;;
2024/04/17 03:54:34;;;;;;;4.3;2;;;;;;;4.79;81.77;97201.666666667;;;;
2024/04/17 04:05:34;;;;;;;4.3;2;;;;;;;5.12;81.63;97211.666666667;;;;
2024/04/17 04:15:34;;;;;;;6;2.2;;;;;;;5.44;79.98;97230;;;;
2024/04/17 04:26:34;;;;;;;6;2.2;;;;;;;5.63;76.54;97246.666666667;;;;
2024/04/17 04:36:34;;;;;;;6;2.2;;;;;;;5.89;76.6;97251.666666667;;;;
2024/04/17 04:47:34;;;;;;;3.6;1.3;;;;;;;6.08;75.87;97258.333333333;;;;
2024/04/17 04:58:34;;;;;;;3.6;1.3;;;;;;;6.19;74.92;97265;;;;
2024/04/17 05:09:34;;;;;;;3.6;1.3;;;;;;;6.47;75.49;97268.333333333;;;;
2024/04/17 05:20:34;;;;;;;4.5;1.6;;;;;;;6.66;74.54;97271.666666667;;;;
2024/04/17 05:30:34;;;;;;;4.5;1.6;;;;;;;6.76;74.41;97271.666666667;;;;
2024/04/17 05:40:34;;;;;;;4.5;1.6;;;;;;;6.76;74.38;97285;;;;
2024/04/17 05:51:34;;;;;;;4.7;1.9;;;;;;;7.01;74.17;97291.666666667;;;;
2024/04/17 06:02:34;;;;;;;4.7;1.9;;;;;;;7.29;73.29;97296.666666667;;;;
2024/04/17 06:12:34;;;;;;;4.7;1.9;;;;;;;7.32;72.41;97310;;;;
2024/04/17 06:23:34;;;;;;;4.5;1.9;;;;;;;7.47;74.39;97320;;;;
2024/04/17 06:34:34;;;;;;;4.5;1.9;;;;;;;7.55;73.32;97328.333333333;;;;
2024/04/17 06:45:34;;;;;;;8.6;4.1;;;;;;;7.54;73.76;97328.333333333;;;;
2024/04/17 06:55:34;;;;;;;8.6;4.1;;;;;;;7.45;74.94;97336.666666667;;;;
2024/04/17 07:05:35;;;;;;;8.6;4.1;;;;;;;7.43;76.46;97341.666666667;;;;
2024/04/17 07:16:34;;;;;;;10.7;5.8;;;;;;;7.26;78.2;97353.333333333;;;;
2024/04/17 07:27:34;;;;;;;10.7;5.8;;;;;;;7.09;79.52;97365;;;;
2024/04/17 07:37:34;;;;;;;10.7;5.8;;;;;;;6.89;81.46;97370;;;;
2024/04/17 07:48:34;;;;;;;10.8;5.6;;;;;;;7.01;80.99;97373.333333333;;;;
2024/04/17 07:59:34;;;;;;;10.8;5.6;;;;;;;6.99;80.21;97371.666666667;;;;
2024/04/17 08:09:34;;;;;;;10.8;5.6;;;;;;;7.5;79.57;97381.666666667;;;;
2024/04/17 08:19:36;;;;;;;10.8;6.1;;;;;;;7.69;79.61;97393.333333333;;;;
2024/04/17 08:30:34;;;;;;;10.8;6.1;;;;;;;7.66;79.07;97408.333333333;;;;
2024/04/17 08:40:34;;;;;;;10.8;6.1;;;;;;;7.8;78.89;97423.333333333;;;;
2024/04/17 08:51:34;;;;;;;9.8;5.7;;;;;;;8.24;79.97;97423.333333333;;;;
2024/04/17 09:02:34;;;;;;;9.8;5.7;;;;;;;8.36;76.94;97430;;;;
2024/04/17 09:13:34;;;;;;;10.3;6.5;;;;;;;7.94;77.69;97441.666666667;;;;
2024/04/17 09:23:34;;;;;;;10.3;6.5;;;;;;;7.66;78.54;97450;;;;
2024/04/17 09:34:34;;;;;;;10.3;6.5;;;;;;;7.41;79.91;97456.666666667;;;;
2024/04/17 09:44:34;;;;;;;8.6;6.1;;;;;;;7.91;79.53;97453.333333333;;;;
2024/04/17 09:54:34;;;;;;;8.6;6.1;;;;;;;8.12;76.99;97453.333333333;;;;
2024/04/17 10:05:34;;;;;;;8.6;6.1;;;;;;;7.88;75.67;97456.666666667;;;;
2024/04/17 10:16:34;;;;;;;12;7.3;;;;;;;7.83;74.65;97458.333333333;;;;
2024/04/17 10:27:34;;;;;;;12;7.3;;;;;;;8.58;74.12;97455;;;;
2024/04/17 10:38:35;;;;;;;12;7.3;;;;;;;8.16;74.44;97458.333333333;;;;
2024/04/17 10:48:34;;;;;;;10.7;6;;;;;;;8.87;73.32;97458.333333333;;;;
2024/04/17 10:58:34;;;;;;;10.7;6;;;;;;;8.52;72.33;97468.333333333;;;;
2024/04/17 11:08:34;;;;;;;10.7;6;;;;;;;8.22;72.55;97473.333333333;;;;
2024/04/17 11:18:35;;;;;;;13.8;8.6;;;;;;;8.1;72.71;97476.666666667;;;;
2024/04/17 11:28:34;;;;;;;13.8;8.6;;;;;;;8.19;72.88;97481.666666667;;;;
2024/04/17 11:38:34;;;;;;;13.8;8.6;;;;;;;8.32;71.6;97486.666666667;;;;
2024/04/17 11:49:46;;;;;;;12.4;8.6;;;;;;;8.19;71.71;97495;;;;
2024/04/17 11:59:46;;;;;;;12.4;8.6;;;;;;;8.19;70.91;97501.666666667;;;;
2024/04/17 12:10:47;;;;;;;12.4;8.6;;;;;;;8.2;68.76;97498.333333333;;;;
2024/04/17 12:20:46;;;;;;;10.4;5.9;;;;;;;9.05;68.77;97498.333333333;;;;
2024/04/17 12:31:46;;;;;;;10.4;5.9;;;;;;;9.39;67.22;97496.666666667;;;;
2024/04/17 12:41:46;;;;;;;10.4;5.9;;;;;;;9.54;65.63;97500;;;;
2024/04/17 12:51:46;;;;;;;7.7;4.5;;;;;;;9.57;62.77;97496.666666667;;;;
2024/04/17 13:02:46;;;;;;;7.7;4.5;;;;;;;9.35;65.06;97493.333333333;;;;
2024/04/17 13:12:46;;;;;;;6.8;4.3;;;;;;;9.79;63.8;97491.666666667;;;;
2024/04/17 13:22:46;;;;;;;6.8;4.3;;;;;;;9.67;62.64;97483.333333333;;;;
2024/04/17 13:32:46;;;;;;;6.8;4.3;;;;;;;8.88;64.82;97491.666666667;;;;
2024/04/17 13:43:47;;;;;;;5.4;3.6;;;;;;;8.87;66.67;97493.333333333;;;;
2024/04/17 13:54:46;;;;;;;5.4;3.6;;;;;;;9.23;65.79;97500;;;;
2024/04/17 14:05:46;;;;;;;5.4;3.6;;;;;;;9.98;64.18;97501.666666667;;;;
2024/04/17 14:15:46;;;;;;;5.7;3.2;;;;;;;10.04;63.53;97498.333333333;;;;
2024/04/17 14:26:46;;;;;;;5.7;3.2;;;;;;;9.75;62.82;97498.333333333;;;;
2024/04/17 14:36:46;;;;;;;5.7;3.2;;;;;;;9.5;63.09;97498.333333333;;;;
2024/04/17 14:47:47;;;;;;;6.7;3.6;;;;;;;9.61;64.47;97498.333333333;;;;
2024/04/17 14:57:48;;;;;;;6.7;3.6;;;;;;;9.49;65.2;97498.333333333;;;;
2024/04/17 15:07:46;;;;;;;6.7;3.6;;;;;;;9.41;66.71;97503.333333333;;;;
2024/04/17 15:18:46;;;;;;;7.1;3.3;;;;;;;9.36;66.72;97506.666666667;;;;
2024/04/17 15:28:47;;;;;;;7.1;3.3;;;;;;;8.86;69.67;97516.666666667;;;;
2024/04/17 15:38:46;;;;;;;7.1;3.3;;;;;;;8.71;71.84;97516.666666667;;;;
2024/04/17 15:48:46;;;;;;;7;3.1;;;;;;;8.17;72.03;97526.666666667;;;;
2024/04/17 15:59:50;;;;;;;7;3.1;;;;;;;7.34;80.24;97535;;;;
2024/04/17 16:10:46;;;;;;;7;3.1;;;;;;;7.39;80.4;97543.333333333;;;;
2024/04/17 16:20:46;;;;;;;5.7;2.7;;;;;;;7.3;80.99;97555;;;;
2024/04/17 16:30:47;;;;;;;5.7;2.7;;;;;;;6.88;82.26;97573.333333333;;;;
2024/04/17 16:41:46;;;;;;;5.7;2.7;;;;;;;6.97;81.2;97595;;;;
2024/04/17 16:52:46;;;;;;;6.2;3;;;;;;;6.6;81.03;97608.333333333;;;;
2024/04/17 17:03:46;;;;;;;6.2;3;;;;;;;6.48;81.79;97618.333333333;;;;
2024/04/17 17:13:46;;;;;;;4.5;2.2;;;;;;;6.54;82.04;97625;;;;
2024/04/17 17:24:46;;;;;;;4.5;2.2;;;;;;;6.44;82.85;97638.333333333;;;;
2024/04/17 17:34:47;;;;;;;4.5;2.2;;;;;;;6.47;83.08;97648.333333333;;;;
2024/04/17 17:45:46;;;;;;;4.5;2.4;;;;;;;6.36;83.62;97663.333333333;;;;
2024/04/17 17:55:47;;;;;;;4.5;2.4;;;;;;;6.32;83.91;97681.666666667;;;;
2024/04/17 18:06:46;;;;;;;4.5;2.4;;;;;;;6.28;84.3;97696.666666667;;;;
2024/04/17 18:16:47;;;;;;;9.7;5.2;;;;;;;6.32;84.22;97711.666666667;;;;
2024/04/17 18:26:46;;;;;;;9.7;5.2;;;;;;;6.34;84.09;97720;;;;
2024/04/17 18:36:46;;;;;;;9.7;5.2;;;;;;;6.47;84.11;97735;;;;
2024/04/17 18:47:48;;;;;;;13.5;8.7;;;;;;;6.2;83.94;97738.333333333;;;;
2024/04/17 18:58:46;;;;;;;13.5;8.7;;;;;;;6;82.92;97748.333333333;;;;
2024/04/17 19:08:48;;;;;;;13.5;8.7;;;;;;;5.94;83.03;97751.666666667;;;;
2024/04/17 19:18:47;;;;;;;8.8;4.1;;;;;;;5.96;83.29;97765;;;;
2024/04/17 19:29:46;;;;;;;8.8;4.1;;;;;;;5.96;82.92;97771.666666667;;;;
2024/04/17 19:39:46;;;;;;;8.8;4.1;;;;;;;6;83.14;97780;;;;
2024/04/17 19:49:46;;;;;;;7.4;3.1;;;;;;;6.03;83.08;97783.333333333;;;;
2024/04/17 19:59:46;;;;;;;7.4;3.1;;;;;;;6.12;82.93;97783.333333333;;;;
2024/04/17 20:10:46;;;;;;;7.4;3.1;;;;;;;6.1;82.88;97790;;;;
2024/04/17 20:20:46;;;;;;;8;3.3;;;;;;;6.08;83.74;97785;;;;
2024/04/17 20:31:46;;;;;;;8;3.3;;;;;;;6.21;82.43;97780;;;;
2024/04/17 20:41:46;;;;;;;8.2;4.5;;;;;;;6.18;82.41;97780;;;;
2024/04/17 20:51:46;;;;;;;8.2;4.5;;;;;;;6.07;83.65;97780;;;;
2024/04/17 21:02:46;;;;;;;8.2;4.5;;;;;;;6.13;83.5;97780;;;;
2024/04/17 21:13:47;;;;;;;7.5;4.3;;;;;;;6.03;82.95;97781.666666667;;;;
2024/04/17 21:24:46;;;;;;;7.5;4.3;;;;;;;5.88;82.78;97788.333333333;;;;
2024/04/17 21:34:46;;;;;;;7.5;4.3;;;;;;;5.61;83.01;97790;;;;
2024/04/17 21:44:47;;;;;;;11.1;5.3;;;;;;;5.27;82.74;97790;;;;
2024/04/17 21:55:46;;;;;;;11.1;5.3;;;;;;;4.8;83.01;97801.666666667;;;;
2024/04/17 22:06:46;;;;;;;11.1;5.3;;;;;;;4.43;83.22;97816.666666667;;;;
2024/04/17 22:16:47;;;;;;;12.5;7.3;;;;;;;4.06;83.48;97820;;;;
2024/04/17 22:26:47;;;;;;;12.5;7.3;;;;;;;3.78;83.94;97826.666666667;;;;
2024/04/17 22:36:47;;;;;;;12.5;7.3;;;;;;;3.6;85.93;97838.333333333;;;;
2024/04/17 22:47:47;;;;;;;11.2;5.9;;;;;;;3.61;87.48;97848.333333333;;;;
2024/04/17 22:58:47;;;;;;;11.2;5.9;;;;;;;3.81;88.55;97850;;;;
2024/04/17 23:08:47;;;;;;;11.2;5.9;;;;;;;3.82;88.77;97848.333333333;;;;
2024/04/17 23:18:47;;;;;;;15.7;7.7;;;;;;;4;88.58;97855;;;;
2024/04/17 23:29:47;;;;;;;15.7;7.7;;;;;;;4.01;88.32;97860;;;;
2024/04/17 23:40:46;;;;;;;15.7;7.7;;;;;;;3.96;87.33;97858.333333333;;;;
2024/04/17 23:51:47;;;;;;;14.7;7.2;;;;;;;3.63;86.4;97856.666666667;;;;
